GVSV

Details ICAO GVSV (VXE)
Name Sao Pedro
Region Cape Verde
Timezone Atlantic/Cape_Verde (UTC-1.0)
Plans Departing 17
Arriving 19
Stats Elevation 66 ft / 20 m (AMSL)
Location 16.833703° -25.054661°
Runways 1
Magnetic Variation 10.110° W
Sunrise 2017-12-14 08:02:21 UTC / 2017-12-14 07:02:21 Local
Sunset 2017-12-14 19:10:19 UTC / 2017-12-14 18:10:19 Local
Advertisement - Login to hide

Runways

ID Width Length Bearing (true) Bearing (mag) Surface Threshold Offset Overrun Length
07 148 ft / 45 m 6,493 ft / 1,979 m 53.56° 63.67° Asphalt 1,066 ft / 325 m 0 ft / 0 m
25 148 ft / 45 m 6,493 ft / 1,979 m 233.57° 243.68° Asphalt 1,113 ft / 339 m 0 ft / 0 m

Map

Weather


0- 5 10 15 20 25 30 35+ Temperature / ° C

Clouds and Precipitation
Forecast for 2017-12-14 18:00 UTC. Updated 12 minutes ago

Ground ~20,000 ft ~40,000 ft Winds

METAR

Not found

TAF

TAF GVSV 141100Z 1412/1518 06020KT 8000 BKN022 TEMPO 1412/1420 06020G30KT PROB30 TEMPO 1412/1424 -RA DZ SCT018 BKN026

Frequencies

Tower 118.40 MHz SAO VICENTE TWR
Approach 118.40 MHz SAO VICENTE APP
Warning: Do not use this data for real-world aviation or navigation. No guarantee of current accuracy is given.